KTUS/TUS METAR and TAF weather

Enter ICAO airport designator
Station Type Date Time Source
KTUS METAR 2019/08/22 04:53 UTC NOAA

KTUS 220453Z 14011KT 10SM CLR 33/11 A2987 RMK AO2 SLP058 T03280111


Station Type Date Time Source
KTUS Decoded METAR 2019/08/22 04:53 UTC NOAA

Station name not available
Aug 22, 2019 - 12:53 AM EDT / 2019.08.22 0453 UTC
Wind: from the SE (140 degrees) at 13 MPH (11 KT):0
Visibility: 10 mile(s):0
Sky conditions: clear
Temperature: 91.0 F (32.8 C)
Dew Point: 52.0 F (11.1 C)
Relative Humidity: 26%
Pressure (altimeter): 29.87 in. Hg (1011 hPa)
ob: KTUS 220453Z 14011KT 10SM CLR 33/11 A2987 RMK AO2 SLP058 T03280111
cycle: 5

Station Type Date Time Source
KTUS TAF 2019/08/21 18:22 UTC NOAA

TAF KTUS 211720Z 2118/2218 16005KT P6SM FEW130
FM212000 26006KT P6SM FEW130
FM212300 31010KT P6SM FEW130

Example: see airport list